Flight Track Log - Related Links

Times and Time Zones

All times are in EDT time to prevent confusion due to time zone crossing. See the UAL4422 flight status page for this flight to view local times or setup timezone preferences in your user account.

Time Position Orientation Groundspeed Altitude Reporting Facility
EDT Latitude Longitude Course Direction KTS MPH feet Rate Location/Type
Wed 06:12:00 PM 31.8488 -101.9129 111° Southeast  Level FlightAware Approximate
Wed 06:13:00 PM 31.8172 -101.8183 111° Southeast  Level FlightAware Approximate
Wed 06:13:15 PM 31.8067 -102.0358 102° East 265 305 9,100  Level Fort Worth Center
Wed 06:14:00 PM 31.7833 -101.7248 113° Southeast  Level FlightAware Approximate
Wed 06:14:15 PM 31.7792 -101.9367 108° East 286 329 10,400  Level Fort Worth Center
Wed 06:15:00 PM 31.7495 -101.6314 106° East  Level FlightAware Approximate
Wed 06:15:15 PM 31.7536 -101.8303 106° East 316 364 11,500  Level Fort Worth Center
Wed 06:16:00 PM 31.7191 -101.5099 106° East  Level FlightAware Approximate
Wed 06:16:15 PM 31.7239 -101.7239 108° East 331 381 13,500  Level Fort Worth Center
Wed 06:17:00 PM 31.6838 -101.3903 109° East  Level FlightAware Approximate
Wed 06:17:15 PM 31.6942 -101.6175 108° East 342 394 15,500  Level Fort Worth Center
Wed 06:18:15 PM 31.6664 -101.5089 107° East 347 399 17,000 1,100 Climbing Fort Worth Center
Wed 06:19:15 PM 31.6367 -101.3953 107° East 352 405 17,700 800 Climbing Fort Worth Center
Wed 06:20:15 PM 31.6008 -101.2694 108° East 375 432 18,600 750 Climbing Fort Worth Center
Wed 06:21:15 PM 31.5672 -101.1411 107° East 393 452 19,200 600 Climbing Fort Worth Center
Wed 06:22:15 PM 31.5292 -101.0081 109° East 417 480 19,800 600 Climbing Fort Worth Center
Wed 06:23:15 PM 31.4872 -100.8700 110° East 435 501 20,400 700 Climbing Fort Worth Center
Wed 06:24:15 PM 31.4514 -100.7300 107° East 442 509 21,200 900 Climbing Fort Worth Center
Wed 06:25:15 PM 31.4131 -100.5922 108° East 447 514 22,200 800 Climbing Fort Worth Center
Wed 06:26:15 PM 31.3728 -100.4497 108° East 452 520 22,800 400 Climbing Fort Worth Center
Wed 06:27:15 PM 31.3261 -100.3097 111° Southeast 452 520 23,000 140 Climbing Fort Worth Center
Wed 06:27:41 PM 31.3053 -100.2478 111° Southeast 469 540 23,000  Level Houston Center
Wed 06:28:43 PM 31.2553 -100.1017 112° Southeast 480 552 23,000  Level Houston Center
Wed 06:29:46 PM 31.2058 -99.9558 112° Southeast 482 555 23,000  Level Houston Center
Wed 06:30:48 PM 31.1656 -99.7786 105° East 474 545 23,000  Level Houston Center
Wed 06:31:50 PM 31.1531 -99.6228 95° East 480 552 23,000  Level Houston Center
Wed 06:32:52 PM 31.1389 -99.4642 96° East 487 560 23,000  Level Houston Center
Wed 06:33:54 PM 31.1264 -99.3089 95° East 482 555 23,000  Level Houston Center
Wed 06:34:56 PM 31.1106 -99.1333 96° East 482 555 23,000  Level Houston Center
Wed 06:35:58 PM 31.0967 -98.9758 96° East 484 557 23,000  Level Houston Center
Wed 06:37:00 PM 31.0831 -98.8194 96° East 480 552 23,000  Level Houston Center
Wed 06:38:02 PM 31.0689 -98.6644 96° East 479 551 23,000  Level Houston Center
Wed 06:39:05 PM 31.0550 -98.5081 96° East 480 552 23,000  Level Houston Center
Wed 06:40:07 PM 31.0400 -98.3522 96° East 482 555 23,000  Level Houston Center
Wed 06:41:09 PM 31.0256 -98.1961 96° East 480 552 23,000  Level Houston Center
Wed 06:42:11 PM 31.0083 -98.0150 96° East 478 550 23,000  Level Houston Center
Wed 06:43:13 PM 30.9931 -97.8589 96° East 481 554 23,000  Level Houston Center
Wed 06:44:15 PM 30.9778 -97.7033 96° East 479 551 23,000  Level Houston Center
Wed 06:45:17 PM 30.9625 -97.5489 97° East 477 549 23,000  Level Houston Center
Wed 06:46:19 PM 30.9467 -97.3944 97° East 476 548 23,000  Level Houston Center
Wed 06:47:22 PM 30.9289 -97.2294 97° East 479 551 23,000  Level Houston Center
Wed 06:48:24 PM 30.8842 -97.0744 109° East 476 548 23,000 -48 Level Houston Center
Wed 06:49:26 PM 30.8347 -96.9342 112° Southeast 468 539 22,900 -871 Descending Houston Center
Wed 06:50:28 PM 30.7864 -96.7989 113° Southeast 450 518 21,200 -1,935 Descending Houston Center
Wed 06:51:30 PM 30.7431 -96.6772 112° Southeast 409 471 18,900 -2,855 Descending Houston Center
Wed 06:52:32 PM 30.6956 -96.5433 112° Southeast 385 443 15,300 -2,855 Descending Houston Center
Wed 06:53:34 PM 30.6550 -96.4253 112° Southeast 389 448 13,000 -1,909 Descending Houston Center
Wed 06:54:00 PM 30.6353 -96.3756 115° Southeast 393 452 12,500 -968 Descending Houston Center
Wed 06:54:36 PM 30.6133 -96.3083 111° Southeast 389 448 12,000 -985 Descending Houston Center
Wed 06:55:07 PM 30.5908 -96.2447 112° Southeast 385 443 11,400 -968 Descending Houston Center
Wed 06:55:38 PM 30.5725 -96.1936 113° Southeast 383 441 11,000 -885 Descending Houston Center
Wed 06:56:08 PM 30.5522 -96.1353 112° Southeast 383 441 10,500 -952 Descending Houston Center
Wed 06:56:41 PM 30.5319 -96.0803 113° Southeast 377 434 10,000 -484 Descending Houston Center
Wed 06:57:10 PM 30.5086 -96.0189 114° Southeast 361 415 10,000 97 Level Houston Center
Wed 06:57:43 PM 30.4953 -95.9814 112° Southeast 358 412 10,100  Climbing Houston Center
Wed 06:58:11 PM 30.4725 -95.9164 112° Southeast 330 380 10,000  Descending Houston Center
Wed 06:58:45 PM 30.4550 -95.8683 113° Southeast 315 362 10,100 98 Climbing Houston Center
Wed 06:59:12 PM 30.4300 -95.8392 135° Southeast 277 319 10,100 -677 Level Houston Center
Wed 06:59:47 PM 30.3994 -95.8094 140° Southeast 275 316 9,400 -1,309 Descending Houston Center
Wed 07:00:07 PM 30.3728 -95.8069 175° South 243 280 8,900 -1,645 Descending Houston Center
Wed 07:00:49 PM 30.3333 -95.8167 192° South 247 284 7,700 -1,970 Descending Houston Center
Wed 07:01:14 PM 30.2992 -95.8300 199° South 242 278 6,700 -1,548 Descending Houston Center
Wed 07:01:51 PM 30.2725 -95.8397 197° South 233 268 6,100 -689 Descending Houston Center
Wed 07:02:15 PM 30.2444 -95.8508 199° South 191 220 6,000 -97 Descending Houston Center
Wed 07:02:53 PM 30.2222 -95.8594 199° South 198 228 6,000  Level Houston Center
Wed 07:03:17 PM 30.1978 -95.8708 202° Southwest 165 190 6,000 -387 Level Houston Center
Wed 07:03:55 PM 30.1775 -95.8794 200° South 175 201 5,600 -885 Descending Houston Center
Wed 07:04:18 PM 30.1569 -95.9069 229° Southwest 195 224 5,100 -968 Descending Houston Center
Wed 07:04:57 PM 30.1408 -95.9342 236° Southwest 181 208 4,600 -764 Descending Houston Center
Wed 07:05:13 PM 30.1311 -95.9486 232° Southwest 181 208 4,400 -571 Descending Houston Center
Wed 07:06:00 PM 30.1000 -95.9567 193° South 171 197 4,000 -358 Descending Houston Center
Wed 07:06:20 PM 30.0797 -95.9617 192° South 166 191 4,000  Level Houston Center
Wed 07:07:02 PM 30.0547 -95.9656 188° South 165 190 4,000  Level Houston Center
Wed 07:07:21 PM 30.0389 -95.9494 139° Southeast 170 196 4,000  Level Houston Center
Wed 07:08:04 PM 30.0231 -95.9258 128° Southeast 172 198 4,000  Level Houston Center
Wed 07:08:22 PM 30.0119 -95.9067 124° Southeast 177 204 4,000 -484 Level Houston Center
Wed 07:09:06 PM 30.0003 -95.8758 114° Southeast 173 199 3,500 -871 Descending Houston Center
Wed 07:09:24 PM 30.0067 -95.8447 77° East 183 211 3,100 -411 Descending Houston Center
Wed 07:10:19 PM 30.0067 -95.7964 90° East 171 197 3,000 -57 Descending Houston Center
Wed 07:11:10 PM 30.0069 -95.7528 90° East 174 200 3,000  Level Houston Center
Wed 07:12:12 PM 30.0067 -95.6969 90° East 173 199 3,000  Level Houston Center
Wed 07:13:14 PM 30.0067 -95.6400 90° East 175 201 3,000  Level Houston Center
Wed 07:14:16 PM 30.0075 -95.5847 89° East 174 200 3,000 -48 Level Houston Center
Wed 07:15:18 PM 30.0064 -95.5297 91° East 173 199 2,900 -528 Descending Houston Center
Wed 07:16:21 PM 30.0075 -95.4656 89° East 170 196 1,900 -952 Descending Houston Center

Login

Don't have an account? Register now (free) for customized features, flight alerts, and more!